createdAt,value
2018-06-11T00:01:44.272Z,65.49
2018-06-11T00:04:12.880Z,66.25
2018-06-11T00:06:41.667Z,65.91
2018-06-11T00:09:10.571Z,65.18
2018-06-11T00:11:39.445Z,64.93
2018-06-11T00:14:08.276Z,64.53
2018-06-11T00:16:38.594Z,64.29
2018-06-11T00:19:08.740Z,64.29
2018-06-11T00:21:37.568Z,63.72
2018-06-11T00:24:06.400Z,63.30
2018-06-11T00:26:35.249Z,64.66
2018-06-11T00:29:04.258Z,64.43
2018-06-11T00:31:33.084Z,65.18
2018-06-11T00:34:02.400Z,65.52
2018-06-11T00:36:31.063Z,65.08
2018-06-11T00:38:59.848Z,64.92
2018-06-11T00:41:28.469Z,65.36
2018-06-11T00:43:57.051Z,65.49
2018-06-11T00:46:25.744Z,66.15
2018-06-11T00:48:54.616Z,66.14
2018-06-11T00:51:23.486Z,65.67
2018-06-11T00:53:52.499Z,65.72
2018-06-11T00:56:21.369Z,66.55
2018-06-11T00:58:50.137Z,65.89
2018-06-11T01:01:18.792Z,66.13
2018-06-11T01:03:47.599Z,66.45
2018-06-11T01:06:16.201Z,66.71
2018-06-11T01:08:44.756Z,66.31
2018-06-11T01:11:13.352Z,66.48
2018-06-11T01:13:41.945Z,67.22
2018-06-11T01:16:10.737Z,66.38
2018-06-11T01:18:39.329Z,66.66
2018-06-11T01:21:07.926Z,66.34
2018-06-11T01:23:36.525Z,67.05
2018-06-11T01:26:05.193Z,66.64
2018-06-11T01:28:33.931Z,66.65
2018-06-11T01:31:02.492Z,67.03
2018-06-11T01:33:31.079Z,68.31
2018-06-11T01:35:59.783Z,68.43
2018-06-11T01:38:28.350Z,67.30
2018-06-11T01:40:57.108Z,67.67
2018-06-11T01:43:25.710Z,67.61
2018-06-11T01:45:54.272Z,68.13
2018-06-11T01:48:22.880Z,68.49
2018-06-11T01:50:51.716Z,68.31
2018-06-11T01:53:20.653Z,69.21
2018-06-11T01:55:49.448Z,68.00
2018-06-11T01:58:18.299Z,68.12
2018-06-11T02:00:47.020Z,68.94
2018-06-11T02:03:15.931Z,68.30
2018-06-11T02:05:45.159Z,68.60
2018-06-11T02:08:13.999Z,69.33
2018-06-11T02:10:42.832Z,69.06
2018-06-11T02:13:11.566Z,69.92
2018-06-11T02:15:40.288Z,69.27
2018-06-11T02:18:09.409Z,70.02
2018-06-11T02:20:38.168Z,70.42
2018-06-11T02:23:06.896Z,70.39
2018-06-11T02:25:35.484Z,69.89
2018-06-11T02:28:04.043Z,69.96
2018-06-11T02:30:32.643Z,69.85
2018-06-11T02:33:01.218Z,69.57
2018-06-11T02:35:29.803Z,69.71
2018-06-11T02:37:58.704Z,69.65
2018-06-11T02:40:27.500Z,69.63
2018-06-11T02:42:56.180Z,69.98
2018-06-11T02:45:24.964Z,70.21
2018-06-11T02:47:53.709Z,70.95
2018-06-11T02:50:22.540Z,70.38
2018-06-11T02:52:51.332Z,70.20
2018-06-11T02:55:20.316Z,70.73
2018-06-11T02:57:49.149Z,71.33
2018-06-11T03:00:17.921Z,71.05
2018-06-11T03:02:46.668Z,70.15
2018-06-11T03:05:15.484Z,69.77
2018-06-11T03:07:44.443Z,69.80
2018-06-11T03:10:13.272Z,69.69
2018-06-11T03:12:41.899Z,69.02
2018-06-11T03:15:10.772Z,69.35
2018-06-11T03:17:39.528Z,68.50
2018-06-11T03:20:08.246Z,68.81
2018-06-11T03:22:37.060Z,68.84
2018-06-11T03:25:06.145Z,68.40
2018-06-11T03:27:34.804Z,69.24
2018-06-11T03:30:03.580Z,68.75
2018-06-11T03:32:32.608Z,68.66
2018-06-11T03:35:01.167Z,68.23
2018-06-11T03:37:29.824Z,68.56
2018-06-11T03:39:58.544Z,69.01
2018-06-11T03:42:27.363Z,67.85
2018-06-11T03:44:56.131Z,68.10
2018-06-11T03:47:24.871Z,67.36
2018-06-11T03:49:53.615Z,68.40
2018-06-11T03:52:22.319Z,67.09
2018-06-11T03:54:51.144Z,67.54
2018-06-11T03:57:20.084Z,67.17
2018-06-11T03:59:48.826Z,67.85
2018-06-11T04:02:17.684Z,67.46
2018-06-11T04:04:46.565Z,68.44
2018-06-11T04:07:15.416Z,68.28
2018-06-11T04:09:44.082Z,67.93
2018-06-11T04:12:12.762Z,68.25
2018-06-11T04:14:41.551Z,68.17
2018-06-11T04:17:10.368Z,67.75
2018-06-11T04:19:39.132Z,67.40
2018-06-11T04:22:07.940Z,66.98
2018-06-11T04:24:36.540Z,67.14
2018-06-11T04:27:22.032Z,67.23
2018-06-11T04:30:10.830Z,66.12
2018-06-11T04:32:40.723Z,65.54
2018-06-11T04:35:09.536Z,66.06
2018-06-11T04:37:38.225Z,65.27
2018-06-11T04:40:07.046Z,65.38
2018-06-11T04:42:35.620Z,64.67
2018-06-11T04:45:04.252Z,64.16
2018-06-11T04:47:32.804Z,66.06
2018-06-11T04:50:01.395Z,65.77
2018-06-11T04:52:30.037Z,65.86
2018-06-11T04:54:58.607Z,66.51
2018-06-11T04:57:27.378Z,64.79
2018-06-11T04:59:55.955Z,64.42
2018-06-11T05:02:24.528Z,64.08
2018-06-11T05:04:53.154Z,63.35
2018-06-11T05:07:21.729Z,62.51
2018-06-11T05:09:50.487Z,62.83
2018-06-11T05:14:46.596Z,61.95
2018-06-11T05:17:15.196Z,61.90
2018-06-11T05:19:43.780Z,61.49
2018-06-11T05:22:12.584Z,60.95
2018-06-11T05:24:41.151Z,61.89
2018-06-11T05:27:09.715Z,61.18
2018-06-11T05:29:38.351Z,60.96
2018-06-11T05:32:06.939Z,60.92
2018-06-11T05:34:36.425Z,60.65
2018-06-11T05:37:05.321Z,59.72
2018-06-11T05:39:34.336Z,58.92
2018-06-11T05:42:03.223Z,59.11
2018-06-11T05:44:31.789Z,57.89
2018-06-11T05:47:00.494Z,58.80
2018-06-11T05:49:29.085Z,57.58
2018-06-11T05:51:57.700Z,57.54
2018-06-11T05:54:26.292Z,56.61
2018-06-11T05:56:54.876Z,57.44
2018-06-11T05:59:23.682Z,57.39
2018-06-11T06:01:52.268Z,57.05
2018-06-11T06:04:21.126Z,55.33
2018-06-11T06:06:49.714Z,56.14
2018-06-11T06:09:18.379Z,56.14
2018-06-11T06:11:47.335Z,56.23
2018-06-11T06:14:16.164Z,57.17
2018-06-11T06:16:45.012Z,56.71
2018-06-11T06:19:13.871Z,56.58
2018-06-11T06:21:42.579Z,57.29
2018-06-11T06:24:16.256Z,57.43
2018-06-11T06:26:47.292Z,57.14
2018-06-11T06:29:18.000Z,56.50
2018-06-11T06:31:47.809Z,55.90
2018-06-11T06:34:16.911Z,54.81
2018-06-11T06:36:48.352Z,53.59
2018-06-11T06:39:19.644Z,53.69
2018-06-11T06:41:50.084Z,52.11
2018-06-11T06:44:19.631Z,52.58
2018-06-11T06:46:49.476Z,52.26
2018-06-11T06:49:25.399Z,52.73
2018-06-11T06:51:55.770Z,52.01
2018-06-11T06:54:26.488Z,51.82
2018-06-11T06:56:57.027Z,49.94
2018-06-11T06:59:25.847Z,49.95
2018-06-11T07:01:56.541Z,49.37
2018-06-11T07:04:25.446Z,48.81
2018-06-11T07:06:55.179Z,49.07
2018-06-11T07:09:24.008Z,49.22
2018-06-11T07:11:55.145Z,48.21
2018-06-11T07:14:24.399Z,47.98
2018-06-11T07:16:53.532Z,47.45
2018-06-11T07:19:24.103Z,47.52
2018-06-11T07:21:52.871Z,47.48
2018-06-11T07:24:21.928Z,46.31
2018-06-11T07:26:50.741Z,46.20
2018-06-11T07:29:19.548Z,47.33
2018-06-11T07:31:48.349Z,48.57
2018-06-11T07:34:17.266Z,47.68
2018-06-11T07:36:46.347Z,45.91
2018-06-11T07:39:15.213Z,47.04
2018-06-11T07:41:43.891Z,45.61
2018-06-11T07:44:12.696Z,46.54
2018-06-11T07:46:41.364Z,46.74
2018-06-11T07:49:10.196Z,47.00
2018-06-11T07:51:39.043Z,46.29
2018-06-11T07:54:07.750Z,46.73
2018-06-11T07:56:36.591Z,47.66
2018-06-11T07:59:06.292Z,46.01
2018-06-11T08:01:35.476Z,46.93
2018-06-11T08:04:04.256Z,46.90
2018-06-11T08:06:33.148Z,46.06
2018-06-11T08:09:02.035Z,45.17
2018-06-11T08:11:30.594Z,46.22
2018-06-11T08:13:59.411Z,45.81
2018-06-11T08:16:28.352Z,44.04
2018-06-11T08:18:57.143Z,44.22
2018-06-11T08:21:25.956Z,43.31
2018-06-11T08:23:54.719Z,42.90
2018-06-11T08:26:23.793Z,42.23
2018-06-11T08:28:52.537Z,41.80
2018-06-11T08:31:21.380Z,41.75
2018-06-11T08:33:50.223Z,41.76
2018-06-11T08:36:19.167Z,41.00
2018-06-11T08:38:48.004Z,40.39
2018-06-11T08:41:16.792Z,41.13
2018-06-11T08:43:45.646Z,41.21
2018-06-11T08:46:17.482Z,40.77
2018-06-11T08:48:46.176Z,39.42
2018-06-11T08:51:14.999Z,39.28
2018-06-11T08:53:43.820Z,40.21
2018-06-11T08:56:12.608Z,39.28
2018-06-11T08:58:41.358Z,40.04
2018-06-11T09:01:10.063Z,40.97
2018-06-11T09:03:38.954Z,40.37
2018-06-11T09:06:07.796Z,40.11
2018-06-11T09:08:36.587Z,41.37
2018-06-11T09:11:05.395Z,39.13
2018-06-11T09:13:34.168Z,37.52
2018-06-11T09:16:03.125Z,36.93
2018-06-11T09:18:31.899Z,35.92
2018-06-11T09:21:00.735Z,36.59
2018-06-11T09:23:29.704Z,37.11
2018-06-11T09:25:58.432Z,37.26
2018-06-11T09:28:27.204Z,38.52
2018-06-11T09:30:56.282Z,39.70
2018-06-11T09:33:25.698Z,41.58
2018-06-11T09:35:54.402Z,41.65
2018-06-11T09:38:23.208Z,44.60
2018-06-11T09:40:52.076Z,45.42
2018-06-11T09:43:20.884Z,47.50
2018-06-11T09:45:49.828Z,47.35
2018-06-11T09:48:18.635Z,48.07
2018-06-11T09:50:47.447Z,47.82
2018-06-11T09:53:16.205Z,46.19
2018-06-11T09:55:44.989Z,44.30
2018-06-11T09:58:13.886Z,44.13
2018-06-11T10:00:42.479Z,41.18
2018-06-11T10:03:11.234Z,39.70
2018-06-11T10:05:40.055Z,37.53
2018-06-11T10:08:08.883Z,37.05
2018-06-11T10:10:37.737Z,33.98
2018-06-11T10:13:06.581Z,31.04
2018-06-11T10:15:35.183Z,28.04
2018-06-11T10:18:03.780Z,29.45
2018-06-11T10:20:32.407Z,30.14
2018-06-11T10:23:00.979Z,32.88
2018-06-11T10:25:29.592Z,30.20
2018-06-11T10:27:58.199Z,29.41
2018-06-11T10:30:26.760Z,25.77
2018-06-11T10:32:55.456Z,25.53
2018-06-11T10:35:24.032Z,27.30
2018-06-11T10:40:26.601Z,23.46
2018-06-11T10:42:55.460Z,24.46
2018-06-11T10:45:24.528Z,27.08
2018-06-11T10:47:53.352Z,28.74
2018-06-11T10:50:22.120Z,29.56
2018-06-11T10:52:51.039Z,32.31
2018-06-11T10:55:19.815Z,34.23
2018-06-11T10:57:48.771Z,34.54
2018-06-11T11:00:17.528Z,36.22
2018-06-11T11:02:46.316Z,34.93
2018-06-11T11:05:15.123Z,33.14
2018-06-11T11:07:43.948Z,32.52
2018-06-11T11:10:12.920Z,31.14
2018-06-11T11:12:41.838Z,30.08
2018-06-11T11:15:10.623Z,29.77
2018-06-11T11:17:39.436Z,28.26
2018-06-11T11:20:08.002Z,27.13
2018-06-11T11:22:36.749Z,24.39
2018-06-11T11:25:05.388Z,23.36
2018-06-11T11:27:33.952Z,23.06
2018-06-11T11:30:02.544Z,23.85
2018-06-11T11:32:31.110Z,22.57
2018-06-11T11:34:59.711Z,21.49
2018-06-11T11:37:28.275Z,22.23
2018-06-11T11:39:56.848Z,22.42
2018-06-11T11:42:25.468Z,21.80
2018-06-11T11:44:54.138Z,20.54
2018-06-11T11:47:22.745Z,20.94
2018-06-11T11:49:51.324Z,22.85
2018-06-11T11:52:19.911Z,24.34
2018-06-11T11:54:48.496Z,25.20
2018-06-11T11:57:17.056Z,26.24
2018-06-11T11:59:45.672Z,24.41
2018-06-11T12:02:14.244Z,21.55
2018-06-11T12:04:42.808Z,20.29
2018-06-11T12:07:11.507Z,20.25
2018-06-11T12:09:40.077Z,21.12
2018-06-11T12:12:09.008Z,20.34
2018-06-11T12:14:39.471Z,22.82
2018-06-11T12:17:08.201Z,25.43
2018-06-11T12:19:37.048Z,27.48
2018-06-11T12:22:05.608Z,29.40
2018-06-11T12:24:34.338Z,30.18
2018-06-11T12:27:02.904Z,30.68
2018-06-11T12:29:31.691Z,31.95
2018-06-11T12:32:00.363Z,33.99
2018-06-11T12:34:28.936Z,34.14
2018-06-11T12:36:57.532Z,33.32
2018-06-11T12:39:26.114Z,32.50
2018-06-11T12:41:54.874Z,32.14
2018-06-11T12:44:23.541Z,32.71
2018-06-11T12:46:52.091Z,32.69
2018-06-11T12:49:20.664Z,32.95
2018-06-11T12:51:49.569Z,32.20
2018-06-11T12:54:18.543Z,31.69
2018-06-11T12:56:47.250Z,30.95
2018-06-11T12:59:15.779Z,31.45
2018-06-11T13:01:44.340Z,34.04
2018-06-11T13:04:13.002Z,34.09
2018-06-11T13:06:41.671Z,34.67
2018-06-11T13:09:10.445Z,34.80
2018-06-11T13:11:39.420Z,34.37
2018-06-11T13:14:08.223Z,33.78
2018-06-11T13:16:36.783Z,33.38
2018-06-11T13:19:05.524Z,31.46
2018-06-11T13:21:34.252Z,29.02
2018-06-11T13:24:03.287Z,27.16
2018-06-11T13:26:31.944Z,26.91
2018-06-11T13:29:00.616Z,27.50
2018-06-11T13:31:29.548Z,28.05
2018-06-11T13:33:58.147Z,28.15
2018-06-11T13:36:26.807Z,29.67
2018-06-11T13:38:55.555Z,30.42
2018-06-11T13:41:24.404Z,31.10
2018-06-11T13:43:53.392Z,30.28
2018-06-11T13:46:21.943Z,30.00
2018-06-11T13:48:50.508Z,30.61
2018-06-11T13:51:19.188Z,32.11
2018-06-11T13:53:47.764Z,33.73
2018-06-11T13:56:16.604Z,34.56
2018-06-11T13:58:45.171Z,35.37
2018-06-11T14:01:13.851Z,35.08
2018-06-11T14:03:42.568Z,35.15
2018-06-11T14:06:11.136Z,35.34
2018-06-11T14:08:39.752Z,35.94
2018-06-11T14:11:08.409Z,37.23
2018-06-11T14:13:36.981Z,37.88
2018-06-11T14:16:05.696Z,38.58
2018-06-11T14:18:34.452Z,37.56
2018-06-11T14:21:03.311Z,38.46
2018-06-11T14:23:33.776Z,38.96
2018-06-11T14:26:05.883Z,39.63
2018-06-11T14:28:34.454Z,40.40
2018-06-11T14:31:03.040Z,42.24
2018-06-11T14:33:31.627Z,41.80
2018-06-11T14:36:00.907Z,42.24
2018-06-11T14:38:33.964Z,41.97
2018-06-11T14:41:07.554Z,41.78
2018-06-11T14:43:41.996Z,42.46
2018-06-11T14:46:10.656Z,41.98
2018-06-11T14:48:42.521Z,41.91
2018-06-11T14:51:11.143Z,43.12
2018-06-11T14:53:39.824Z,41.88
2018-06-11T14:56:08.684Z,42.61
2018-06-11T14:58:37.468Z,43.40
2018-06-11T15:01:06.520Z,43.91
2018-06-11T15:03:35.229Z,44.80
2018-06-11T15:06:03.851Z,44.50
2018-06-11T15:08:32.581Z,44.48
2018-06-11T15:11:02.721Z,44.44
2018-06-11T15:13:37.820Z,44.70
2018-06-11T15:16:06.551Z,47.23
2018-06-11T15:18:37.877Z,47.60
2018-06-11T15:21:06.589Z,46.12
2018-06-11T15:23:35.365Z,45.46
2018-06-11T15:26:03.948Z,44.02
2018-06-11T15:28:32.571Z,45.70
2018-06-11T15:31:01.499Z,46.37
2018-06-11T15:33:30.188Z,47.24
2018-06-11T15:35:59.010Z,47.37
2018-06-11T15:38:27.948Z,48.95
2018-06-11T15:40:56.730Z,50.14
2018-06-11T15:43:25.640Z,50.63
2018-06-11T15:45:54.449Z,51.44
2018-06-11T15:48:23.353Z,52.15
2018-06-11T15:50:52.376Z,55.83
2018-06-11T15:53:21.268Z,57.52
2018-06-11T15:55:50.564Z,59.59
2018-06-11T15:58:19.309Z,60.42
2018-06-11T16:00:48.137Z,64.86
2018-06-11T16:03:16.928Z,65.01
2018-06-11T16:05:45.692Z,64.30
2018-06-11T16:08:14.665Z,62.46
2018-06-11T16:10:43.400Z,62.79
2018-06-11T16:13:12.128Z,59.83
2018-06-11T16:15:40.873Z,61.57
2018-06-11T16:18:09.605Z,59.63
2018-06-11T16:20:38.364Z,58.50
2018-06-11T16:23:07.076Z,59.11
2018-06-11T16:25:35.813Z,59.55
2018-06-11T16:28:04.631Z,58.93
2018-06-11T16:30:33.346Z,59.49
2018-06-11T16:33:02.216Z,60.80
2018-06-11T16:35:30.959Z,60.92
2018-06-11T16:37:59.668Z,59.72
2018-06-11T16:40:28.620Z,60.70
2018-06-11T16:42:57.872Z,61.35
2018-06-11T16:45:26.708Z,60.49
2018-06-11T16:47:55.432Z,61.95
2018-06-11T16:50:24.132Z,62.04
2018-06-11T16:52:53.468Z,61.75
2018-06-11T16:55:22.216Z,62.13
2018-06-11T16:57:51.200Z,62.31
2018-06-11T17:00:20.181Z,63.07
2018-06-11T17:02:49.173Z,62.89
2018-06-11T17:05:18.019Z,63.51
2018-06-11T17:07:46.716Z,63.51
2018-06-11T17:10:15.576Z,64.07
2018-06-11T17:12:44.396Z,63.93
2018-06-11T17:15:13.223Z,64.13
2018-06-11T17:17:42.009Z,62.84
2018-06-11T17:20:10.831Z,63.49
2018-06-11T17:22:39.692Z,63.26
2018-06-11T17:25:08.484Z,63.14
2018-06-11T17:27:37.332Z,62.17
2018-06-11T17:30:06.278Z,63.07
2018-06-11T17:32:35.017Z,62.96
2018-06-11T17:35:04.072Z,61.57
2018-06-11T17:37:34.410Z,61.98
2018-06-11T17:40:03.508Z,62.18
2018-06-11T17:42:32.572Z,62.12
2018-06-11T17:45:01.297Z,63.36
2018-06-11T17:47:30.113Z,62.48
2018-06-11T17:49:58.840Z,62.80
2018-06-11T17:52:27.679Z,61.78
2018-06-11T17:54:56.441Z,60.84
2018-06-11T17:57:25.186Z,61.18
2018-06-11T17:59:53.919Z,60.04
2018-06-11T18:02:22.652Z,59.84
2018-06-11T18:04:51.425Z,59.73
2018-06-11T18:07:20.139Z,60.44
2018-06-11T18:09:48.875Z,60.35
2018-06-11T18:12:20.028Z,60.34
2018-06-11T18:14:48.844Z,60.43
2018-06-11T18:17:18.133Z,61.39
2018-06-11T18:19:46.856Z,61.32
2018-06-11T18:22:15.564Z,61.62
2018-06-11T18:24:44.304Z,61.56
2018-06-11T18:27:13.097Z,61.70
2018-06-11T18:29:42.346Z,62.02
2018-06-11T18:32:11.081Z,63.18
2018-06-11T18:34:39.788Z,63.34
2018-06-11T18:37:08.544Z,63.66
2018-06-11T18:39:37.622Z,65.27
2018-06-11T18:42:06.602Z,64.88
2018-06-11T18:44:35.336Z,63.80
2018-06-11T18:47:04.116Z,64.14
2018-06-11T18:49:32.925Z,64.28
2018-06-11T18:52:01.918Z,64.20
2018-06-11T18:54:30.864Z,65.09
2018-06-11T18:56:59.868Z,64.56
2018-06-11T18:59:28.584Z,64.95
2018-06-11T19:01:57.664Z,64.85
2018-06-11T19:04:26.919Z,64.52
2018-06-11T19:06:56.203Z,64.32
2018-06-11T19:09:25.441Z,63.95
2018-06-11T19:11:54.636Z,64.62
2018-06-11T19:14:23.633Z,64.36
2018-06-11T19:16:53.038Z,64.44
2018-06-11T19:19:22.149Z,65.40
2018-06-11T19:21:51.222Z,65.01
2018-06-11T19:24:20.199Z,67.01
2018-06-11T19:26:49.326Z,66.02
2018-06-11T19:29:18.231Z,66.37
2018-06-11T19:31:47.152Z,66.57
2018-06-11T19:34:16.114Z,65.60
2018-06-11T19:36:45.073Z,66.49
2018-06-11T19:39:13.900Z,65.61
2018-06-11T19:41:42.856Z,67.48
2018-06-11T19:44:11.789Z,67.17
2018-06-11T19:46:40.625Z,67.28
2018-06-11T19:49:09.768Z,66.69
2018-06-11T19:51:52.913Z,67.84
2018-06-11T19:54:22.837Z,67.98
2018-06-11T19:59:20.870Z,67.35
2018-06-11T20:01:50.162Z,67.97
2018-06-11T20:04:19.192Z,67.80
2018-06-11T20:06:48.680Z,67.83
2018-06-11T20:09:18.416Z,68.14
2018-06-11T20:11:47.894Z,68.74
2018-06-11T20:14:17.303Z,68.62
2018-06-11T20:16:47.304Z,69.42
2018-06-11T20:19:16.853Z,68.03
2018-06-11T20:21:47.619Z,68.21
2018-06-11T20:24:17.849Z,67.55
2018-06-11T20:26:47.439Z,67.31
2018-06-11T20:29:16.769Z,68.44
2018-06-11T20:31:46.043Z,68.12
2018-06-11T20:34:15.627Z,68.83
2018-06-11T20:36:45.308Z,67.79
2018-06-11T20:39:14.467Z,67.21
2018-06-11T20:41:43.889Z,67.18
2018-06-11T20:44:13.289Z,67.29
2018-06-11T20:46:42.867Z,66.60
2018-06-11T20:49:12.416Z,67.72
2018-06-11T20:51:41.907Z,67.12
2018-06-11T20:54:11.530Z,66.68
2018-06-11T20:56:40.968Z,67.63
2018-06-11T20:59:10.423Z,67.13
2018-06-11T21:01:39.839Z,67.41
2018-06-11T21:04:08.736Z,67.80
2018-06-11T21:06:39.141Z,67.66
2018-06-11T21:09:09.509Z,68.57
2018-06-11T21:11:38.634Z,68.33
2018-06-11T21:14:07.793Z,68.94
2018-06-11T21:16:37.306Z,68.91
2018-06-11T21:19:06.889Z,68.94
2018-06-11T21:21:36.342Z,68.87
2018-06-11T21:24:05.365Z,68.93
2018-06-11T21:26:34.152Z,69.23
2018-06-11T21:29:03.201Z,69.39
2018-06-11T21:31:32.229Z,69.32
2018-06-11T21:34:01.348Z,70.77
2018-06-11T21:36:30.241Z,69.42
2018-06-11T21:38:59.249Z,69.88
2018-06-11T21:41:28.309Z,69.29
2018-06-11T21:43:57.133Z,69.50
2018-06-11T21:46:26.126Z,69.41
2018-06-11T21:48:55.072Z,69.55
2018-06-11T21:51:24.031Z,70.10
2018-06-11T21:53:52.989Z,69.55
2018-06-11T21:56:22.096Z,68.78
2018-06-11T21:58:50.985Z,69.39
2018-06-11T22:01:19.886Z,68.51
2018-06-11T22:03:48.987Z,68.43
2018-06-11T22:06:18.033Z,68.07
2018-06-11T22:08:47.232Z,68.16
2018-06-11T22:11:16.165Z,67.15
2018-06-11T22:13:45.049Z,66.05
2018-06-11T22:16:13.852Z,65.88
2018-06-11T22:18:42.820Z,65.11
2018-06-11T22:21:11.733Z,64.81
2018-06-11T22:23:40.808Z,65.74
2018-06-11T22:26:09.801Z,65.18
2018-06-11T22:28:38.730Z,64.58
2018-06-11T22:31:07.560Z,64.83
2018-06-11T22:33:36.425Z,65.43
2018-06-11T22:36:05.377Z,65.15
2018-06-11T22:38:34.297Z,64.58
2018-06-11T22:41:03.172Z,63.98
2018-06-11T22:43:32.041Z,63.86
2018-06-11T22:46:01.128Z,64.37
2018-06-11T22:48:30.144Z,64.03
2018-06-11T22:50:58.997Z,66.71
2018-06-11T22:53:28.649Z,67.08
2018-06-11T22:55:57.789Z,67.66
2018-06-11T22:58:26.952Z,67.45
2018-06-11T23:00:56.042Z,67.78
2018-06-11T23:03:24.908Z,68.12
2018-06-11T23:05:53.934Z,67.61
2018-06-11T23:08:22.961Z,68.90
2018-06-11T23:10:51.916Z,70.23
2018-06-11T23:13:20.777Z,70.70
2018-06-11T23:15:49.825Z,71.57
2018-06-11T23:18:18.849Z,70.98
2018-06-11T23:20:47.866Z,72.16
2018-06-11T23:23:17.008Z,71.39
2018-06-11T23:25:45.920Z,70.89
2018-06-11T23:28:14.732Z,71.86
2018-06-11T23:30:43.840Z,71.19
2018-06-11T23:33:12.857Z,70.50
2018-06-11T23:35:41.809Z,68.95
2018-06-11T23:38:10.804Z,69.29
2018-06-11T23:40:39.901Z,69.70
2018-06-11T23:43:08.908Z,68.82
2018-06-11T23:45:37.901Z,70.42
2018-06-11T23:48:06.944Z,69.15
2018-06-11T23:50:35.988Z,68.89
2018-06-11T23:53:04.856Z,69.10
2018-06-11T23:55:33.815Z,70.15
2018-06-11T23:58:02.770Z,69.01
